Terminal Aerodrome Forecast
Issued by NWS North Platte, NE

Home | Current Version | Previous Version | Graphics & Text | Print | Product List | Glossary On
Versions: 1 2 3 4 5 6 7 8 9 10 11 12 13 14 15 16 17
600
FTUS43 KLBF 261729
TAFVTN
TAF
KVTN 261729Z 2618/2718 36011KT P6SM FEW250
     FM270300 03006KT P6SM VCTS BKN110CB
     FM270600 01007KT P6SM -SHRA VCTS OVC060CB
     FM271400 01007KT P6SM OVC030=

USA.gov is the U.S. government's official web portal to all federal, state and local government web resources and services.